Time;durP1;ratioP1;P1;durP2;ratioP2;P2;SDS_P1;SDS_P2;PMS_P1;PMS_P2;Temp;Humidity;BMP_temperature;BMP_pressure;BME280_temperature;BME280_humidity;BME280_pressure;Samples;Min_cycle;Max_cycle;Signal;HPM_P1;HPM_P2
2022/04/30 00:07:53;;;;;;;30.37;17.15;;;10.20;99.90;;;;;;6771987;88;20698;-80
2022/04/30 00:17:54;;;;;;;23.23;14.52;;;10.20;99.90;;;;;;6770399;88;20230;-82
2022/04/30 00:27:55;;;;;;;22.90;13.27;;;10.20;99.90;;;;;;6775729;88;20171;-81
2022/04/30 00:37:56;;;;;;;20.85;12.13;;;10.10;99.90;;;;;;6767354;88;20192;-79
2022/04/30 00:47:56;;;;;;;18.85;10.95;;;10.00;99.90;;;;;;6771361;88;20234;-81
2022/04/30 00:58:01;;;;;;;17.83;10.23;;;9.90;99.90;;;;;;6773285;88;20223;-81
2022/04/30 01:08:02;;;;;;;17.53;9.83;;;10.00;99.90;;;;;;6773109;88;21247;-79
2022/04/30 01:18:03;;;;;;;15.80;9.20;;;9.90;99.90;;;;;;6771881;88;20197;-79
2022/04/30 01:28:05;;;;;;;16.08;8.90;;;9.70;99.90;;;;;;6775155;88;20180;-79
2022/04/30 01:38:05;;;;;;;17.92;9.23;;;9.70;99.90;;;;;;6772674;88;20217;-80
2022/04/30 01:48:08;;;;;;;17.02;9.07;;;9.60;99.90;;;;;;6773082;88;20184;-81
2022/04/30 01:58:09;;;;;;;16.75;9.35;;;9.40;99.90;;;;;;6776003;88;20195;-80
2022/04/30 02:08:16;;;;;;;16.73;8.95;;;9.20;99.90;;;;;;6777974;88;20196;-81
2022/04/30 02:18:18;;;;;;;16.95;9.23;;;8.90;99.90;;;;;;6781820;87;20164;-81
2022/04/30 02:28:19;;;;;;;14.45;8.95;;;8.80;99.90;;;;;;6775044;88;20226;-81
2022/04/30 02:38:19;;;;;;;16.02;9.18;;;8.70;99.90;;;;;;6776674;88;20211;-81
2022/04/30 02:48:20;;;;;;;15.18;9.07;;;8.70;99.90;;;;;;6778389;87;20196;-79
2022/04/30 03:09:00;;;;;;;16.08;8.73;;;8.50;99.90;;;;;;6760346;88;20184;-79
2022/04/30 03:29:21;;;;;;;14.70;9.40;;;8.70;99.90;;;;;;6759307;88;20650;-78
2022/04/30 03:39:22;;;;;;;15.82;9.10;;;8.60;99.90;;;;;;6756069;88;20714;-79
2022/04/30 03:49:22;;;;;;;17.12;9.32;;;8.60;99.90;;;;;;6759602;88;20239;-78
2022/04/30 03:59:23;;;;;;;17.80;9.07;;;8.50;99.90;;;;;;6760047;87;20278;-79
2022/04/30 04:09:23;;;;;;;17.77;9.88;;;8.50;99.90;;;;;;6755165;88;20710;-78
2022/04/30 04:19:26;;;;;;;16.30;9.05;;;8.40;99.90;;;;;;6761309;88;20249;-79
2022/04/30 04:29:26;;;;;;;17.02;9.10;;;8.40;99.90;;;;;;6759103;88;20195;-79
2022/04/30 04:39:27;;;;;;;16.52;9.38;;;8.20;99.90;;;;;;6760134;88;20209;-79
2022/04/30 04:49:28;;;;;;;16.17;8.90;;;8.10;99.90;;;;;;6761140;88;20365;-78
2022/04/30 04:59:28;;;;;;;14.90;8.40;;;7.90;99.90;;;;;;6761701;88;20200;-79
2022/04/30 05:09:31;;;;;;;15.57;8.40;;;7.80;99.90;;;;;;6760903;88;20581;-79
2022/04/30 05:19:32;;;;;;;16.60;8.23;;;7.70;99.90;;;;;;6764785;88;20224;-79
2022/04/30 05:29:32;;;;;;;16.23;8.50;;;7.60;99.90;;;;;;6743939;88;20195;-78
2022/04/30 05:39:33;;;;;;;15.88;8.15;;;7.50;99.90;;;;;;6742367;88;20606;-78
2022/04/30 05:49:34;;;;;;;14.10;8.40;;;7.70;99.90;;;;;;6740034;88;20392;-79
2022/04/30 05:59:34;;;;;;;17.12;8.48;;;7.70;99.90;;;;;;6742265;88;20350;-79
2022/04/30 06:09:35;;;;;;;19.02;8.93;;;7.90;99.90;;;;;;6742137;88;20204;-79
2022/04/30 06:19:35;;;;;;;15.07;8.88;;;8.20;99.90;;;;;;6749263;88;20199;-79
2022/04/30 06:29:36;;;;;;;16.80;9.25;;;8.40;99.90;;;;;;6742107;88;20191;-79
2022/04/30 06:39:36;;;;;;;17.20;9.77;;;8.50;99.90;;;;;;6740907;88;20566;-78
2022/04/30 06:49:37;;;;;;;16.20;9.30;;;8.40;99.90;;;;;;6740509;88;20199;-79
2022/04/30 06:59:40;;;;;;;14.45;8.50;;;8.60;99.90;;;;;;6739187;88;20209;-78
2022/04/30 07:09:41;;;;;;;14.80;8.07;;;8.80;99.90;;;;;;6744276;88;20172;-78
2022/04/30 07:19:42;;;;;;;13.02;7.15;;;8.90;99.90;;;;;;6738618;88;20210;-78
2022/04/30 07:29:43;;;;;;;10.55;6.80;;;8.70;99.90;;;;;;6737612;88;20271;-78
2022/04/30 07:39:44;;;;;;;11.50;7.28;;;8.80;99.90;;;;;;6738634;88;20220;-78
2022/04/30 07:49:44;;;;;;;11.52;6.60;;;9.20;99.90;;;;;;6735187;88;20257;-77
2022/04/30 07:59:46;;;;;;;8.95;5.40;;;9.30;99.90;;;;;;6738682;88;20737;-78
2022/04/30 08:09:46;;;;;;;9.27;5.85;;;9.70;99.90;;;;;;6740512;88;20197;-79
2022/04/30 08:19:48;;;;;;;7.25;4.85;;;10.30;99.90;;;;;;6739323;88;20283;-79
2022/04/30 08:29:48;;;;;;;10.43;5.03;;;11.10;99.90;;;;;;6746830;88;20212;-79
2022/04/30 08:39:49;;;;;;;7.60;4.65;;;11.20;99.90;;;;;;6753385;88;20324;-78
2022/04/30 08:49:51;;;;;;;7.60;4.80;;;11.80;99.90;;;;;;6761057;88;20231;-79
2022/04/30 08:59:51;;;;;;;8.77;4.97;;;12.20;99.90;;;;;;6766209;88;20882;-79
2022/04/30 09:10:00;;;;;;;9.30;4.40;;;11.80;99.90;;;;;;6769795;88;20210;-79
2022/04/30 09:20:02;;;;;;;8.73;4.30;;;11.90;99.90;;;;;;6774248;88;20175;-79
2022/04/30 09:30:17;;;;;;;10.73;4.00;;;11.60;99.90;;;;;;6768271;88;20259;-79
2022/04/30 09:40:20;;;;;;;8.20;3.85;;;11.90;99.90;;;;;;6768136;88;20230;-80
2022/04/30 10:00:41;;;;;;;7.15;3.37;;;13.10;99.90;;;;;;6771792;88;20187;-79
2022/04/30 10:10:49;;;;;;;5.85;2.90;;;12.90;99.90;;;;;;6760254;88;20944;-79
2022/04/30 10:20:59;;;;;;;6.78;3.20;;;13.20;99.90;;;;;;6759267;88;20219;-78
2022/04/30 10:31:05;;;;;;;6.50;3.10;;;13.10;99.90;;;;;;6745463;88;20898;-78
2022/04/30 10:41:09;;;;;;;;;;;14.20;99.90;;;;;;6739891;88;20696;-79
2022/04/30 10:51:11;;;;;;;8.38;3.60;;;16.50;98.50;;;;;;6727387;88;20059;-78
2022/04/30 11:01:19;;;;;;;6.28;3.53;;;16.70;96.00;;;;;;6740999;88;20251;-80
2022/04/30 11:11:20;;;;;;;5.10;3.70;;;15.90;97.70;;;;;;6743743;88;20370;-81
2022/04/30 11:21:20;;;;;;;5.82;3.60;;;16.40;94.90;;;;;;6749462;88;20185;-80
2022/04/30 11:31:21;;;;;;;5.82;3.37;;;17.80;91.70;;;;;;6757248;88;20207;-80
2022/04/30 11:41:22;;;;;;;5.55;3.25;;;17.80;90.80;;;;;;6756718;88;20237;-79
2022/04/30 11:51:27;;;;;;;6.75;3.75;;;17.90;90.70;;;;;;6751942;88;20294;-77
2022/04/30 12:01:33;;;;;;;4.78;3.42;;;16.60;91.90;;;;;;6743830;88;20247;-78
2022/04/30 12:11:41;;;;;;;6.00;3.60;;;17.20;90.70;;;;;;6733399;88;20204;-77
2022/04/30 12:32:07;;;;;;;6.20;3.47;;;17.90;87.20;;;;;;6743499;87;20715;-78
2022/04/30 12:42:11;;;;;;;6.25;3.35;;;17.50;90.00;;;;;;6751891;88;20302;-78
2022/04/30 12:52:11;;;;;;;5.90;3.37;;;17.70;86.70;;;;;;6748510;87;20984;-78
2022/04/30 13:02:12;;;;;;;4.50;2.87;;;17.40;86.00;;;;;;6753656;87;20231;-78
2022/04/30 13:22:32;;;;;;;4.97;2.60;;;18.10;83.70;;;;;;6752264;88;20165;-79
2022/04/30 13:32:33;;;;;;;4.78;3.40;;;18.20;85.50;;;;;;6750304;87;20247;-77
2022/04/30 13:42:34;;;;;;;5.07;2.65;;;17.60;88.30;;;;;;6750880;88;20232;-77
2022/04/30 13:52:35;;;;;;;5.20;2.90;;;19.10;85.10;;;;;;6751049;88;20740;-78
2022/04/30 14:02:38;;;;;;;6.62;2.90;;;19.00;80.70;;;;;;6749162;87;20187;-78
2022/04/30 14:12:39;;;;;;;5.32;2.67;;;18.70;81.00;;;;;;6768166;88;20164;-78
2022/04/30 14:22:40;;;;;;;6.47;2.80;;;19.40;79.90;;;;;;6769184;88;20169;-78
2022/04/30 14:32:43;;;;;;;5.10;2.90;;;19.20;76.40;;;;;;6771925;88;20184;-79
2022/04/30 14:42:44;;;;;;;4.57;3.00;;;17.90;78.70;;;;;;6771804;88;20178;-80
2022/04/30 15:02:49;;;;;;;9.82;3.05;;;17.20;81.90;;;;;;6749948;88;20197;-79
2022/04/30 15:12:49;;;;;;;5.90;2.97;;;17.10;82.30;;;;;;6741086;88;20197;-76
2022/04/30 15:22:50;;;;;;;4.60;2.85;;;16.80;80.70;;;;;;6734075;88;20182;-76
2022/04/30 15:32:50;;;;;;;5.37;2.65;;;17.70;80.90;;;;;;6732382;88;20176;-77
2022/04/30 15:42:51;;;;;;;4.68;2.70;;;18.60;79.20;;;;;;6729229;88;20242;-76
2022/04/30 15:52:52;;;;;;;4.50;2.58;;;18.20;79.30;;;;;;6728158;88;20686;-75
2022/04/30 16:02:52;;;;;;;3.85;2.40;;;18.10;78.40;;;;;;6728914;88;20185;-76
2022/04/30 16:12:55;;;;;;;4.87;2.70;;;17.40;77.80;;;;;;6730490;88;20199;-76
2022/04/30 16:22:57;;;;;;;3.72;2.70;;;16.80;80.10;;;;;;6736100;87;20237;-81
2022/04/30 16:32:59;;;;;;;3.97;2.80;;;16.80;78.50;;;;;;6765189;88;20186;-81
2022/04/30 16:42:59;;;;;;;4.45;2.60;;;16.50;80.70;;;;;;6765287;88;20188;-82
2022/04/30 16:53:00;;;;;;;5.60;2.73;;;16.00;81.80;;;;;;6760266;88;20654;-81
2022/04/30 17:03:01;;;;;;;5.72;2.90;;;16.20;81.20;;;;;;6760881;88;20505;-81
2022/04/30 17:13:01;;;;;;;5.10;2.92;;;16.40;81.00;;;;;;6759469;88;20208;-80
2022/04/30 17:23:03;;;;;;;4.72;2.72;;;16.60;79.70;;;;;;6746926;88;20177;-80
2022/04/30 17:43:25;;;;;;;5.00;3.08;;;16.10;83.20;;;;;;6751112;88;20199;-80
2022/04/30 17:53:25;;;;;;;4.37;2.92;;;15.30;82.90;;;;;;6747840;88;20359;-79
2022/04/30 18:03:26;;;;;;;5.32;2.90;;;14.80;82.90;;;;;;6746269;88;20185;-79
2022/04/30 18:13:28;;;;;;;5.12;3.10;;;14.90;85.40;;;;;;6750393;88;20744;-81
2022/04/30 18:23:29;;;;;;;5.18;2.80;;;14.80;85.40;;;;;;6737884;88;20181;-81
2022/04/30 18:33:30;;;;;;;7.72;3.35;;;13.90;85.80;;;;;;6737635;88;20494;-81
2022/04/30 18:43:31;;;;;;;7.90;3.70;;;13.40;90.40;;;;;;6739677;88;20222;-81
2022/04/30 18:53:32;;;;;;;6.75;3.60;;;13.00;92.90;;;;;;6736510;88;20701;-81
2022/04/30 19:03:33;;;;;;;9.27;3.50;;;12.80;95.30;;;;;;6735714;88;20188;-79
2022/04/30 19:13:34;;;;;;;8.32;4.50;;;12.70;97.00;;;;;;6734240;88;20611;-79
2022/04/30 19:23:34;;;;;;;7.03;4.03;;;12.50;99.00;;;;;;6734026;88;20221;-79
2022/04/30 19:33:35;;;;;;;7.18;4.10;;;12.30;99.90;;;;;;6733435;88;20214;-80
2022/04/30 19:43:36;;;;;;;7.93;4.60;;;11.90;99.90;;;;;;6736551;88;20207;-81
2022/04/30 19:53:37;;;;;;;9.35;4.90;;;11.80;99.90;;;;;;6732054;88;20256;-80
2022/04/30 20:03:38;;;;;;;7.15;4.70;;;11.60;99.90;;;;;;6732995;88;20348;-81
2022/04/30 20:23:58;;;;;;;8.75;5.30;;;11.40;99.90;;;;;;6735337;88;20235;-81
2022/04/30 20:44:18;;;;;;;9.25;4.97;;;11.40;99.90;;;;;;6738994;88;20669;-79
2022/04/30 20:54:19;;;;;;;8.57;4.95;;;11.30;99.90;;;;;;6738875;88;20237;-79
2022/04/30 21:04:19;;;;;;;8.05;5.32;;;11.10;99.90;;;;;;6741968;88;20768;-79
2022/04/30 21:14:20;;;;;;;12.52;5.65;;;11.00;99.90;;;;;;6742937;88;20598;-81
2022/04/30 21:24:21;;;;;;;9.95;5.32;;;10.70;99.90;;;;;;6740768;88;20217;-81
2022/04/30 21:34:22;;;;;;;8.68;4.80;;;10.70;99.90;;;;;;6741063;88;20201;-80
2022/04/30 21:44:25;;;;;;;13.13;5.80;;;10.70;99.90;;;;;;6742926;88;20648;-81
2022/04/30 21:59:48;;;;;;;10.35;5.70;;;10.50;99.90;;;;;;6729579;88;20194;-80
2022/04/30 22:04:46;;;;;;;10.95;5.70;;;10.20;99.90;;;;;;6731800;88;20188;-80
2022/04/30 22:14:47;;;;;;;10.75;5.93;;;10.00;99.90;;;;;;6732230;88;20228;-79
2022/04/30 22:24:47;;;;;;;11.87;6.63;;;9.90;99.90;;;;;;6736742;88;20658;-82
2022/04/30 22:34:48;;;;;;;10.57;6.62;;;9.70;99.90;;;;;;6740006;88;20503;-80
2022/04/30 22:44:48;;;;;;;10.35;6.07;;;9.70;99.90;;;;;;6732154;88;20218;-80
2022/04/30 22:55:10;;;;;;;10.57;6.12;;;9.70;99.90;;;;;;6758851;77;20179;-83
2022/04/30 23:05:13;;;;;;;12.00;6.53;;;9.50;99.90;;;;;;6766933;88;20169;-82
2022/04/30 23:15:14;;;;;;;11.38;6.45;;;9.40;99.90;;;;;;6767295;88;20177;-83
2022/04/30 23:25:14;;;;;;;9.30;6.22;;;9.30;99.90;;;;;;6748016;88;20170;-83
2022/04/30 23:35:16;;;;;;;11.10;6.40;;;9.10;99.90;;;;;;6748064;88;20147;-81
2022/04/30 23:45:17;;;;;;;10.80;6.62;;;9.00;99.90;;;;;;6748140;88;20153;-81
2022/04/30 23:55:17;;;;;;;11.35;6.93;;;8.90;99.90;;;;;;6745210;87;20152;-81
